createdAt,value
2022-12-22T00:02:07.232Z,95995.56
2022-12-22T00:04:53.093Z,96041.72
2022-12-22T00:07:38.719Z,96038.28
2022-12-22T00:10:27.753Z,95986.84
2022-12-22T00:13:13.753Z,96040.06
2022-12-22T00:15:59.780Z,96019.25
2022-12-22T00:18:46.344Z,96021.53
2022-12-22T00:21:32.813Z,95996.16
2022-12-22T00:24:18.605Z,95994.88
2022-12-22T00:27:06.153Z,95994.88
2022-12-22T00:29:56.640Z,95981.88
2022-12-22T00:32:44.091Z,96013.94
2022-12-22T00:35:33.496Z,96012.63
2022-12-22T00:38:19.536Z,95927.34
2022-12-22T00:41:05.517Z,95929.81
2022-12-22T00:43:52.700Z,96007.25
2022-12-22T00:46:38.888Z,95902.72
2022-12-22T00:49:25.001Z,95981.00
2022-12-22T00:52:10.623Z,95892.59
2022-12-22T00:54:56.698Z,95966.03
2022-12-22T00:57:45.105Z,95959.22
2022-12-22T01:00:36.926Z,95953.31
2022-12-22T01:03:24.255Z,95936.31
2022-12-22T01:06:21.093Z,95961.44
2022-12-22T01:09:07.512Z,95971.59
2022-12-22T01:11:54.064Z,95944.97
2022-12-22T01:14:39.978Z,95942.22
2022-12-22T01:17:28.857Z,95784.59
2022-12-22T01:20:14.828Z,95986.09
2022-12-22T01:23:00.868Z,95984.16
2022-12-22T01:25:46.739Z,95956.66
2022-12-22T01:28:34.756Z,95979.09
2022-12-22T01:31:36.315Z,95887.16
2022-12-22T01:34:23.271Z,95979.94
2022-12-22T01:37:08.979Z,95935.09
2022-12-22T01:39:55.082Z,95967.16
2022-12-22T01:42:41.300Z,95951.19
2022-12-22T01:45:41.013Z,95999.09
2022-12-22T01:48:31.045Z,96115.38
2022-12-22T01:51:22.746Z,95934.47
2022-12-22T01:54:09.096Z,96030.34
2022-12-22T01:56:55.203Z,95976.34
2022-12-22T01:59:41.240Z,95963.88
2022-12-22T02:02:28.370Z,95984.50
2022-12-22T02:05:18.285Z,95933.47
2022-12-22T02:08:28.791Z,96129.72
2022-12-22T02:11:32.277Z,95963.53
2022-12-22T02:14:35.287Z,95938.59
2022-12-22T02:17:29.322Z,95932.06
2022-12-22T02:20:45.448Z,95758.75
2022-12-22T02:23:47.055Z,95959.22
2022-12-22T02:26:47.063Z,95913.47
2022-12-22T02:29:36.293Z,95935.34
2022-12-22T02:32:22.371Z,95914.09
2022-12-22T02:35:08.419Z,95938.31
2022-12-22T02:38:04.698Z,95862.41
2022-12-22T02:40:58.193Z,95950.59
2022-12-22T02:44:03.580Z,95978.13
2022-12-22T02:46:58.508Z,95930.66
2022-12-22T02:49:50.956Z,95964.63
2022-12-22T02:52:45.872Z,95861.72
2022-12-22T02:55:32.275Z,95934.53
2022-12-22T02:58:18.786Z,95850.91
2022-12-22T03:01:06.596Z,95855.13
2022-12-22T03:03:52.674Z,95796.41
2022-12-22T03:06:49.033Z,95903.28
2022-12-22T03:09:35.047Z,95881.41
2022-12-22T03:12:20.964Z,95883.38
2022-12-22T03:15:06.819Z,95875.06
2022-12-22T03:17:54.095Z,95901.41
2022-12-22T03:20:40.032Z,95839.41
2022-12-22T03:23:26.301Z,95865.09
2022-12-22T03:25:54.877Z,95858.28
2022-12-22T03:28:26.186Z,95877.91
2022-12-22T03:30:56.929Z,95876.66
2022-12-22T03:33:27.339Z,95848.22
2022-12-22T03:35:56.034Z,95869.78
2022-12-22T03:38:24.573Z,95844.44
2022-12-22T03:40:53.547Z,95799.16
2022-12-22T03:43:39.294Z,95804.09
2022-12-22T03:46:25.658Z,95776.25
2022-12-22T03:49:13.581Z,95816.00
2022-12-22T03:51:51.321Z,95859.50
2022-12-22T03:54:22.542Z,95875.19
2022-12-22T03:56:52.041Z,95812.72
2022-12-22T03:59:20.989Z,95843.16
2022-12-22T04:01:52.245Z,95815.53
2022-12-22T04:04:24.903Z,95822.72
2022-12-22T04:06:53.798Z,95794.72
2022-12-22T04:09:24.759Z,95819.44
2022-12-22T04:12:10.562Z,95801.78
2022-12-22T04:14:38.870Z,95773.66
2022-12-22T04:17:08.309Z,95803.28
2022-12-22T04:19:38.023Z,95798.84
2022-12-22T04:22:07.288Z,95809.63
2022-12-22T04:24:35.548Z,95800.47
2022-12-22T04:27:03.798Z,95828.47
2022-12-22T04:29:32.000Z,95757.13
2022-12-22T04:32:00.217Z,95792.31
2022-12-22T04:34:28.444Z,95733.09
2022-12-22T04:37:05.351Z,95817.50
2022-12-22T04:39:41.107Z,95805.38
2022-12-22T04:42:10.223Z,95810.78
2022-12-22T04:44:38.431Z,95814.88
2022-12-22T04:47:07.040Z,95746.16
2022-12-22T04:49:35.336Z,95777.25
2022-12-22T04:52:05.147Z,95802.78
2022-12-22T04:54:33.342Z,95771.53
2022-12-22T04:57:01.723Z,95739.28
2022-12-22T04:59:29.944Z,95787.06
2022-12-22T05:01:58.531Z,95710.50
2022-12-22T05:04:35.119Z,95786.41
2022-12-22T05:07:13.413Z,95763.28
2022-12-22T05:09:41.728Z,95746.44
2022-12-22T05:12:23.949Z,95789.31
2022-12-22T05:14:52.094Z,95733.09
2022-12-22T05:17:20.851Z,95790.59
2022-12-22T05:19:49.107Z,95764.22
2022-12-22T05:22:18.612Z,95779.75
2022-12-22T05:24:46.763Z,95778.25
2022-12-22T05:27:18.476Z,95795.00
2022-12-22T05:29:46.649Z,95753.53
2022-12-22T05:32:14.760Z,95774.97
2022-12-22T05:34:42.886Z,95800.41
2022-12-22T05:37:11.043Z,95769.63
2022-12-22T05:39:40.619Z,95728.66
2022-12-22T05:42:08.790Z,95759.13
2022-12-22T05:44:37.171Z,95764.56
2022-12-22T05:47:05.501Z,95742.31
2022-12-22T05:49:33.708Z,95770.31
2022-12-22T05:52:01.813Z,95736.56
2022-12-22T05:54:30.007Z,95737.44
2022-12-22T05:56:59.528Z,95759.69
2022-12-22T05:59:27.719Z,95751.03
2022-12-22T06:01:55.935Z,95699.00
2022-12-22T06:04:24.156Z,95767.75
2022-12-22T06:06:52.480Z,95747.13
2022-12-22T06:09:20.687Z,95736.78
2022-12-22T06:11:49.760Z,95694.78
2022-12-22T06:14:19.278Z,95742.72
2022-12-22T06:16:47.434Z,95768.56
2022-12-22T06:19:15.640Z,95776.28
2022-12-22T06:21:43.823Z,95789.38
2022-12-22T06:24:12.254Z,95766.09
2022-12-22T06:26:40.414Z,95754.66
2022-12-22T06:29:08.802Z,95740.59
2022-12-22T06:31:38.368Z,95741.91
2022-12-22T06:34:06.610Z,95742.06
2022-12-22T06:36:35.806Z,95750.09
2022-12-22T06:39:04.068Z,95765.94
2022-12-22T06:41:50.052Z,95769.56
2022-12-22T06:44:18.649Z,95742.22
2022-12-22T06:46:48.225Z,95749.94
2022-12-22T06:49:16.427Z,95747.47
2022-12-22T06:51:44.569Z,95696.44
2022-12-22T06:54:12.850Z,95746.81
2022-12-22T06:56:41.066Z,95739.59
2022-12-22T06:59:09.236Z,95716.03
2022-12-22T07:01:37.668Z,95748.41
2022-12-22T07:04:10.622Z,95742.16
2022-12-22T07:06:44.104Z,95765.59
2022-12-22T07:09:12.510Z,95726.09
2022-12-22T07:11:40.951Z,95735.59
2022-12-22T07:14:09.738Z,95740.50
2022-12-22T07:16:37.983Z,95770.13
2022-12-22T07:19:07.735Z,95733.91
2022-12-22T07:21:35.900Z,95720.53
2022-12-22T07:24:04.138Z,95776.81
2022-12-22T07:26:32.573Z,95732.91
2022-12-22T07:29:00.759Z,95738.81
2022-12-22T07:31:29.051Z,95796.28
2022-12-22T07:33:57.396Z,95773.97
2022-12-22T07:36:27.034Z,95792.75
2022-12-22T07:38:55.625Z,95775.09
2022-12-22T07:41:41.165Z,95738.06
2022-12-22T07:44:09.525Z,95745.91
2022-12-22T07:46:40.830Z,95734.13
2022-12-22T07:49:27.171Z,95758.72
2022-12-22T07:51:57.985Z,95780.34
2022-12-22T07:54:28.203Z,95687.63
2022-12-22T07:56:56.536Z,95506.19
2022-12-22T07:59:24.856Z,95776.56
2022-12-22T08:01:53.378Z,95712.53
2022-12-22T08:04:22.580Z,95760.19
2022-12-22T08:06:50.924Z,95735.28
2022-12-22T08:09:21.648Z,95738.03
2022-12-22T08:11:50.529Z,95738.25
2022-12-22T08:14:19.219Z,95750.75
2022-12-22T08:16:47.532Z,95741.19
2022-12-22T08:19:15.845Z,95763.13
2022-12-22T08:21:50.342Z,95788.06
2022-12-22T08:24:22.589Z,95747.06
2022-12-22T08:26:55.006Z,95756.50
2022-12-22T08:29:28.138Z,95749.25
2022-12-22T08:31:56.657Z,95752.06
2022-12-22T08:34:25.144Z,95712.19
2022-12-22T08:36:58.069Z,95780.41
2022-12-22T08:39:32.184Z,95753.81
2022-12-22T08:42:00.962Z,95709.50
2022-12-22T08:44:32.005Z,95748.06
2022-12-22T08:47:01.571Z,95736.47
2022-12-22T08:49:29.975Z,95769.38
2022-12-22T08:51:58.482Z,95720.59
2022-12-22T08:54:28.199Z,95728.81
2022-12-22T08:56:58.586Z,95746.28
2022-12-22T08:59:26.761Z,95730.72
2022-12-22T09:01:54.987Z,95709.97
2022-12-22T09:04:31.310Z,95739.88
2022-12-22T09:07:00.062Z,95712.59
2022-12-22T09:09:32.733Z,95743.72
2022-12-22T09:12:01.059Z,95707.28
2022-12-22T09:14:29.478Z,95740.81
2022-12-22T09:16:57.891Z,95726.59
2022-12-22T09:19:26.148Z,95749.31
2022-12-22T09:21:54.307Z,95706.63
2022-12-22T09:24:22.510Z,95750.41
2022-12-22T09:26:52.102Z,95713.19
2022-12-22T09:29:20.301Z,95687.72
2022-12-22T09:31:48.726Z,95732.91
2022-12-22T09:34:18.619Z,95723.31
2022-12-22T09:36:48.069Z,95717.34
2022-12-22T09:39:17.041Z,95760.56
2022-12-22T09:41:49.400Z,95760.97
2022-12-22T09:44:26.601Z,95724.59
2022-12-22T09:46:57.523Z,95729.56
2022-12-22T09:49:26.291Z,95728.47
2022-12-22T09:51:58.387Z,95662.41
2022-12-22T09:54:28.295Z,95689.97
2022-12-22T09:56:57.817Z,95778.09
2022-12-22T09:59:31.183Z,95712.63
2022-12-22T10:02:13.541Z,95743.25
2022-12-22T10:04:58.237Z,95728.13
2022-12-22T10:07:32.954Z,95745.00
2022-12-22T10:10:08.725Z,95726.28
2022-12-22T10:12:36.934Z,95732.09
2022-12-22T10:15:15.435Z,95711.03
2022-12-22T10:17:46.645Z,95747.53
2022-12-22T10:20:27.566Z,95727.50
2022-12-22T10:22:59.804Z,95762.63
2022-12-22T10:26:00.051Z,95770.88
2022-12-22T10:28:26.074Z,95792.94
2022-12-22T10:31:17.959Z,95785.13
2022-12-22T10:33:49.012Z,95744.63
2022-12-22T10:36:24.763Z,95746.94
2022-12-22T10:39:04.143Z,95740.41
2022-12-22T10:41:37.691Z,95793.16
2022-12-22T10:44:10.662Z,95758.28
2022-12-22T10:46:44.020Z,95773.41
2022-12-22T10:49:17.952Z,95768.69
2022-12-22T10:51:49.796Z,95741.78
2022-12-22T10:54:33.235Z,95805.72
2022-12-22T10:57:12.099Z,95726.75
2022-12-22T10:59:50.946Z,95777.78
2022-12-22T11:02:31.791Z,95758.63
2022-12-22T11:05:11.248Z,95781.59
2022-12-22T11:07:42.846Z,95809.47
2022-12-22T11:10:24.165Z,95733.06
2022-12-22T11:13:29.962Z,95752.19
2022-12-22T11:16:04.011Z,95801.16
2022-12-22T11:18:52.790Z,95769.91
2022-12-22T11:21:28.470Z,95723.50
2022-12-22T11:24:08.161Z,95747.63
2022-12-22T11:26:47.218Z,95718.78
2022-12-22T11:29:38.279Z,95706.94
2022-12-22T11:32:26.723Z,95710.19
2022-12-22T11:35:07.392Z,95812.44
2022-12-22T11:37:47.013Z,95740.28
2022-12-22T11:40:29.614Z,95724.59
2022-12-22T11:43:19.461Z,95720.94
2022-12-22T11:46:03.240Z,95733.28
2022-12-22T11:48:57.765Z,95711.81
2022-12-22T11:51:48.619Z,95735.22
2022-12-22T11:55:06.171Z,95775.06
2022-12-22T11:57:42.314Z,95754.13
2022-12-22T12:00:14.367Z,95756.13
2022-12-22T12:03:26.728Z,95749.03
2022-12-22T12:06:20.599Z,95748.91
2022-12-22T12:09:08.743Z,95751.88
2022-12-22T12:11:44.724Z,95772.63
2022-12-22T12:14:24.831Z,95753.50
2022-12-22T12:17:00.244Z,95759.19
2022-12-22T12:20:16.786Z,95788.69
2022-12-22T12:23:02.546Z,95788.88
2022-12-22T12:25:39.036Z,95766.94
2022-12-22T12:28:21.898Z,95786.41
2022-12-22T12:30:58.134Z,95719.34
2022-12-22T12:33:37.605Z,95770.00
2022-12-22T12:36:15.452Z,95776.56
2022-12-22T12:39:10.338Z,95801.72
2022-12-22T12:41:51.909Z,95769.81
2022-12-22T12:44:25.562Z,95837.78
2022-12-22T12:47:13.900Z,95733.25
2022-12-22T12:50:00.550Z,95755.03
2022-12-22T12:53:15.089Z,95771.38
2022-12-22T12:56:05.681Z,95799.59
2022-12-22T12:58:55.508Z,95841.56
2022-12-22T13:01:59.369Z,95794.16
2022-12-22T13:05:13.944Z,95903.09
2022-12-22T13:08:16.202Z,95863.38
2022-12-22T13:10:49.511Z,95830.41
2022-12-22T13:13:57.876Z,95840.88
2022-12-22T13:16:38.412Z,95835.97
2022-12-22T13:19:26.478Z,95802.84
2022-12-22T13:21:57.974Z,95790.53
2022-12-22T13:24:31.501Z,95842.69
2022-12-22T13:27:06.874Z,95829.06
2022-12-22T13:29:44.521Z,95842.84
2022-12-22T13:32:29.956Z,95865.78
2022-12-22T13:37:57.424Z,95865.31
2022-12-22T13:40:30.740Z,95846.41
2022-12-22T13:43:04.268Z,95866.53
2022-12-22T13:46:01.331Z,95862.06
2022-12-22T13:48:43.629Z,95860.63
2022-12-22T13:51:20.022Z,95878.66
2022-12-22T13:54:09.764Z,95880.13
2022-12-22T13:56:42.943Z,95875.69
2022-12-22T13:59:29.003Z,95902.59
2022-12-22T14:02:05.822Z,95919.59
2022-12-22T14:04:35.881Z,95927.34
2022-12-22T14:07:12.650Z,95958.31
2022-12-22T14:09:45.892Z,95903.72
2022-12-22T14:12:17.222Z,95894.09
2022-12-22T14:14:47.611Z,95920.44
2022-12-22T14:17:23.799Z,95958.00
2022-12-22T14:19:55.408Z,95936.03
2022-12-22T14:22:26.319Z,95947.47
2022-12-22T14:25:00.162Z,95952.56
2022-12-22T14:27:35.983Z,95959.59
2022-12-22T14:30:17.323Z,95947.16
2022-12-22T14:32:54.786Z,95935.03
2022-12-22T14:35:29.384Z,95940.41
2022-12-22T14:38:19.243Z,95921.91
2022-12-22T14:40:54.452Z,95912.38
2022-12-22T14:43:29.932Z,95927.97
2022-12-22T14:46:09.545Z,95891.88
2022-12-22T14:48:46.726Z,95955.50
2022-12-22T14:51:18.732Z,95960.25
2022-12-22T14:53:50.630Z,95939.94
2022-12-22T14:56:19.111Z,95965.50
2022-12-22T14:58:49.069Z,95973.38
2022-12-22T15:01:22.969Z,95950.44
2022-12-22T15:04:08.419Z,95950.13
2022-12-22T15:06:45.588Z,95979.28
2022-12-22T15:10:13.051Z,95934.72
2022-12-22T15:12:20.155Z,95986.63
2022-12-22T15:14:49.138Z,95949.16
2022-12-22T15:17:23.650Z,95957.66
2022-12-22T15:19:58.447Z,96122.03
2022-12-22T15:22:26.575Z,95987.66
2022-12-22T15:24:54.803Z,96018.28
2022-12-22T15:27:22.997Z,95972.22
2022-12-22T15:29:51.148Z,96023.66
2022-12-22T15:32:19.300Z,95994.19
2022-12-22T15:34:47.506Z,96013.69
2022-12-22T15:37:17.053Z,95962.56
2022-12-22T15:39:45.209Z,96048.91
2022-12-22T15:42:14.430Z,96044.16
2022-12-22T15:44:42.626Z,96023.34
2022-12-22T15:47:12.572Z,95999.25
2022-12-22T15:49:41.290Z,96000.75
2022-12-22T15:52:13.025Z,96008.75
2022-12-22T15:54:42.682Z,95975.00
2022-12-22T15:57:14.073Z,96029.09
2022-12-22T15:59:44.626Z,96048.25
2022-12-22T16:02:14.160Z,95991.41
2022-12-22T16:04:42.658Z,96023.50
2022-12-22T16:07:12.526Z,95953.09
2022-12-22T16:09:45.362Z,95970.78
2022-12-22T16:12:16.408Z,96043.81
2022-12-22T16:14:50.579Z,95946.69
2022-12-22T16:17:21.665Z,96028.44
2022-12-22T16:19:49.994Z,96015.50
2022-12-22T16:22:21.536Z,96015.66
2022-12-22T16:24:51.893Z,96020.22
2022-12-22T16:27:20.161Z,96055.28
2022-12-22T16:29:53.355Z,96042.19
2022-12-22T16:32:26.905Z,95927.47
2022-12-22T16:35:00.305Z,96030.72
2022-12-22T16:37:28.486Z,96044.16
2022-12-22T16:39:57.999Z,96029.72
2022-12-22T16:45:20.962Z,95876.31
2022-12-22T16:47:52.386Z,95991.72
2022-12-22T16:50:27.559Z,96001.72
2022-12-22T16:52:55.694Z,96049.41
2022-12-22T16:55:25.303Z,95983.84
2022-12-22T16:57:53.538Z,95996.97
2022-12-22T17:00:28.219Z,95993.66
2022-12-22T17:03:00.361Z,96027.75
2022-12-22T17:05:56.072Z,95983.38
2022-12-22T17:08:28.630Z,96015.00
2022-12-22T17:11:04.783Z,95999.91
2022-12-22T17:13:39.285Z,95926.69
2022-12-22T17:16:07.933Z,96015.78
2022-12-22T17:18:37.370Z,95972.41
2022-12-22T17:21:05.816Z,95929.13
2022-12-22T17:23:37.749Z,96044.97
2022-12-22T17:26:09.711Z,96011.06
2022-12-22T17:28:39.585Z,95998.09
2022-12-22T17:31:08.181Z,95985.16
2022-12-22T17:33:36.386Z,96002.19
2022-12-22T17:36:05.201Z,95980.25
2022-12-22T17:38:33.387Z,95995.81
2022-12-22T17:41:03.224Z,95968.13
2022-12-22T17:43:32.732Z,95991.06
2022-12-22T17:46:01.030Z,96000.41
2022-12-22T17:48:29.239Z,95915.25
2022-12-22T17:50:57.480Z,95984.00
2022-12-22T17:53:25.691Z,95980.28
2022-12-22T17:56:09.695Z,95963.22
2022-12-22T17:58:39.410Z,95875.13
2022-12-22T18:01:07.779Z,95945.88
2022-12-22T18:03:35.988Z,95920.97
2022-12-22T18:06:04.965Z,95928.66
2022-12-22T18:08:33.248Z,95956.00
2022-12-22T18:11:03.142Z,95967.47
2022-12-22T18:13:31.335Z,95977.31
2022-12-22T18:16:01.271Z,95935.88
2022-12-22T18:18:29.545Z,95925.84
2022-12-22T18:21:06.600Z,95976.63
2022-12-22T18:23:37.933Z,95936.34
2022-12-22T18:26:08.322Z,95930.63
2022-12-22T18:28:36.940Z,95959.94
2022-12-22T18:31:06.878Z,95959.59
2022-12-22T18:33:35.029Z,95915.88
2022-12-22T18:36:05.869Z,95946.19
2022-12-22T18:38:36.310Z,95952.22
2022-12-22T18:41:04.625Z,95957.31
2022-12-22T18:43:32.769Z,95979.56
2022-12-22T18:46:01.044Z,95935.19
2022-12-22T18:48:30.579Z,95923.25
2022-12-22T18:50:58.833Z,95913.59
2022-12-22T18:53:30.237Z,95953.06
2022-12-22T18:55:59.333Z,95942.59
2022-12-22T18:58:27.968Z,95813.72
2022-12-22T19:00:57.624Z,95859.22
2022-12-22T19:03:29.340Z,95876.28
2022-12-22T19:05:59.656Z,95916.38
2022-12-22T19:08:31.377Z,96007.78
2022-12-22T19:11:04.046Z,95851.88
2022-12-22T19:13:35.761Z,95870.53
2022-12-22T19:16:04.337Z,95870.53
2022-12-22T19:18:32.711Z,95858.75
2022-12-22T19:21:02.218Z,95811.59
2022-12-22T19:23:30.380Z,95881.66
2022-12-22T19:26:08.551Z,95906.88
2022-12-22T19:28:41.247Z,95839.75
2022-12-22T19:31:12.712Z,95880.66
2022-12-22T19:33:43.695Z,95861.03
2022-12-22T19:36:18.693Z,95829.75
2022-12-22T19:38:50.522Z,95894.75
2022-12-22T19:41:35.264Z,95881.16
2022-12-22T19:44:03.786Z,95876.91
2022-12-22T19:46:35.704Z,95880.66
2022-12-22T19:49:04.033Z,95828.13
2022-12-22T19:51:33.681Z,95632.31
2022-12-22T19:54:02.648Z,95870.19
2022-12-22T19:56:30.960Z,95846.94
2022-12-22T19:59:01.030Z,95831.41
2022-12-22T20:01:33.823Z,95851.22
2022-12-22T20:04:02.068Z,95836.81
2022-12-22T20:06:30.269Z,95853.50
2022-12-22T20:09:03.109Z,95845.00
2022-12-22T20:11:31.317Z,95836.34
2022-12-22T20:14:00.129Z,95823.56
2022-12-22T20:16:28.467Z,95862.34
2022-12-22T20:18:56.657Z,95789.16
2022-12-22T20:21:28.458Z,95774.94
2022-12-22T20:24:01.494Z,95846.63
2022-12-22T20:26:29.892Z,95838.63
2022-12-22T20:28:58.066Z,95836.31
2022-12-22T20:31:27.133Z,95889.69
2022-12-22T20:33:55.783Z,95846.63
2022-12-22T20:36:27.644Z,95845.31
2022-12-22T20:39:02.582Z,95825.03
2022-12-22T20:41:30.807Z,95804.06
2022-12-22T20:43:58.944Z,95787.84
2022-12-22T20:46:29.757Z,95853.19
2022-12-22T20:49:00.264Z,95804.38
2022-12-22T20:51:31.440Z,95810.59
2022-12-22T20:54:02.266Z,95786.91
2022-12-22T20:56:33.226Z,95818.97
2022-12-22T20:59:11.381Z,95836.78
2022-12-22T21:01:39.789Z,95819.59
2022-12-22T21:04:09.329Z,95789.31
2022-12-22T21:06:40.109Z,95787.06
2022-12-22T21:09:12.679Z,95811.56
2022-12-22T21:11:40.875Z,95791.44
2022-12-22T21:14:10.624Z,95769.34
2022-12-22T21:16:40.524Z,95757.56
2022-12-22T21:19:09.105Z,95783.28
2022-12-22T21:21:37.408Z,95812.59
2022-12-22T21:24:05.973Z,95788.03
2022-12-22T21:26:40.131Z,95796.38
2022-12-22T21:29:15.331Z,95758.41
2022-12-22T21:31:43.529Z,95799.81
2022-12-22T21:34:12.061Z,95807.81
2022-12-22T21:36:43.422Z,95733.34
2022-12-22T21:39:23.607Z,95743.66
2022-12-22T21:42:03.858Z,95751.38
2022-12-22T21:44:34.147Z,95735.66
2022-12-22T21:47:03.324Z,95801.59
2022-12-22T21:49:34.163Z,95745.47
2022-12-22T21:54:54.538Z,95760.72
2022-12-22T21:57:25.689Z,95745.47
2022-12-22T21:59:53.895Z,95736.66
2022-12-22T22:02:22.220Z,95706.53
2022-12-22T22:04:55.002Z,95734.53
2022-12-22T22:07:23.954Z,95717.50
2022-12-22T22:09:52.121Z,95716.72
2022-12-22T22:12:37.151Z,95699.84
2022-12-22T22:15:08.956Z,95691.53
2022-12-22T22:17:37.497Z,95681.66
2022-12-22T22:20:07.690Z,95719.47
2022-12-22T22:22:35.847Z,95716.34
2022-12-22T22:25:04.221Z,95707.19
2022-12-22T22:27:32.454Z,95719.28
2022-12-22T22:30:00.726Z,95688.69
2022-12-22T22:32:30.318Z,95727.78
2022-12-22T22:34:58.531Z,95689.34
2022-12-22T22:37:26.711Z,95696.38
2022-12-22T22:39:55.447Z,95701.28
2022-12-22T22:42:23.643Z,95968.91
2022-12-22T22:44:51.829Z,95659.84
2022-12-22T22:47:20.044Z,95629.56
2022-12-22T22:49:49.690Z,95675.91
2022-12-22T22:52:19.015Z,95661.19
2022-12-22T22:54:47.178Z,95634.22
2022-12-22T22:57:15.807Z,95676.38
2022-12-22T22:59:44.038Z,95603.38
2022-12-22T23:02:12.291Z,95654.47
2022-12-22T23:04:56.982Z,95598.63
2022-12-22T23:07:27.671Z,95648.25
2022-12-22T23:09:55.872Z,95580.81
2022-12-22T23:12:24.411Z,95630.88
2022-12-22T23:14:52.737Z,95599.78
2022-12-22T23:17:20.971Z,95552.72
2022-12-22T23:19:49.211Z,95590.50
2022-12-22T23:22:18.843Z,95588.34
2022-12-22T23:24:47.008Z,95573.81
2022-12-22T23:27:15.374Z,95591.78
2022-12-22T23:29:43.574Z,95576.94
2022-12-22T23:32:11.826Z,95536.34
2022-12-22T23:34:40.184Z,95607.41
2022-12-22T23:37:12.144Z,95607.88
2022-12-22T23:39:44.777Z,95570.63
2022-12-22T23:42:13.450Z,95599.06
2022-12-22T23:44:41.670Z,95589.44
2022-12-22T23:47:09.968Z,95499.75
2022-12-22T23:49:38.198Z,95623.75
2022-12-22T23:52:06.494Z,95588.94
2022-12-22T23:54:34.625Z,95601.53
2022-12-22T23:57:04.179Z,95577.81
2022-12-22T23:59:32.378Z,95597.59
